Terminal Aerodrome Forecast
Issued by NWS

Home | Current Version | Previous Version | Text Only | Print | Product List | Glossary Off
Versions: 1 2 3 4 5 6 7 8 9 10 11 12 13 14 15

000
FTUS42 KMHX 141133
TAFISO
TAF
KISO 141133Z 1412/1512 04008KT P6SM OVC035
     FM141500 04007KT P6SM OVC020
     FM150000 VRB03KT P6SM SCT008 OVC020
      AMD LTD TO CLD VIS AND WIND=

USA.gov is the U.S. government's official web portal to all federal, state and local government web resources and services.